Station Historical Data
Daily Summary for May 22, 2017 Units:  English    Metric   Both
« Previous Day
Next Day »
Daily Weekly Monthly Yearly Custom
  High: Low: Average:
Temperature: 78.8 °F 66.7 °F 70.6 °F
Dew Point: 69.2 °F 62.9 °F 66.3 °F
Humidity: 95% 67% 87%
Wind Speed: 1.0mph 0.0mph 0mph
Wind Gust: 3.0mph - -
Wind- - NW
Pressure: 30.08 in 29.94 in -
Precipitation: 0.05 in    
Historical Graphs
 
 
Tabular Data for May 22, 2017
Time Temperature Dew Point Pressure Wind Wind Speed Wind Gust Humidity Rainfall Rate (Hourly) Conditions
00:00 70.6 °F 66.9 °F 30.08 in Calm     88% 0.00 in RA
00:10 70.6 °F 66.9 °F 30.07 in Calm     88% 0.00 in SCT
00:20 70.5 °F 67.1 °F 30.07 in Calm     89% 0.00 in SCT
00:30 70.5 °F 67.1 °F 30.08 in Calm     89% 0.00 in SCT
00:40 70.3 °F 66.9 °F 30.08 in Calm     89% 0.00 in SCT
00:50 70.3 °F 66.9 °F 30.08 in Calm     89% 0.00 in SCT
01:00 70.2 °F 66.8 °F 30.07 in Calm     89% 0.00 in SCT
01:10 70.0 °F 66.6 °F 30.07 in Calm     89% 0.00 in SCT
01:20 69.8 °F 66.7 °F 30.07 in Calm     90% 0.00 in SCT
01:40 69.4 °F 66.3 °F 30.06 in Calm     90% 0.00 in SCT
01:50 69.1 °F 66.0 °F 30.06 in Calm     90% 0.00 in SCT
02:00 69.0 °F 65.9 °F 30.06 in Calm     90% 0.00 in SCT
02:10 68.8 °F 65.7 °F 30.06 in Calm     90% 0.00 in SCT
02:20 68.7 °F 66.0 °F 30.06 in Calm     91% 0.00 in SCT
02:30 68.6 °F 65.8 °F 30.05 in Calm     91% 0.00 in SCT
02:40 68.3 °F 65.6 °F 30.05 in Calm     91% 0.00 in SCT
02:50 68.1 °F 65.4 °F 30.06 in Calm     91% 0.00 in SCT
03:00 68.1 °F 65.4 °F 30.06 in Calm     91% 0.00 in SCT
03:10 68.1 °F 65.4 °F 30.06 in Calm     91% 0.00 in SCT
03:20 68.1 °F 65.7 °F 30.06 in Calm     92% 0.00 in SCT
03:30 68.0 °F 65.6 °F 30.05 in Calm     92% 0.00 in SCT
03:40 67.9 °F 65.5 °F 30.05 in Calm     92% 0.00 in SCT
03:50 67.7 °F 65.3 °F 30.05 in Calm     92% 0.00 in SCT
04:00 66.7 °F 65.2 °F 30.05 in Calm     95% 0.00 in SCT
04:20 66.7 °F 65.2 °F 30.06 in Calm     95% 0.00 in SCT
04:30 66.7 °F 65.2 °F 30.05 in Calm     95% 0.00 in SCT
04:40 66.7 °F 65.2 °F 30.05 in Calm     95% 0.00 in SCT
04:50 66.7 °F 65.2 °F 30.05 in Calm     95% 0.00 in SCT
05:00 66.7 °F 65.2 °F 30.05 in Calm     95% 0.00 in SCT
05:10 66.7 °F 65.2 °F 30.05 in Calm     95% 0.00 in SCT
05:20 66.7 °F 65.2 °F 30.04 in Calm     95% 0.00 in SCT
05:30 66.7 °F 65.2 °F 30.05 in Calm     95% 0.00 in SCT
05:40 66.7 °F 65.2 °F 30.05 in Calm     95% 0.00 in SCT
05:50 66.7 °F 65.2 °F 30.05 in Calm     95% 0.00 in SCT
06:00 66.7 °F 65.2 °F 30.05 in Calm     95% 0.00 in SCT
06:10 66.7 °F 65.2 °F 30.05 in Calm     95% 0.00 in SCT
06:20 66.7 °F 65.2 °F 30.06 in Calm     95% 0.00 in SCT
06:30 66.7 °F 65.2 °F 30.06 in Calm     95% 0.00 in SCT
06:40 66.7 °F 65.2 °F 30.06 in Calm     95% 0.00 in SCT
06:50 66.7 °F 65.2 °F 30.06 in Calm     95% 0.00 in SCT
07:00 66.7 °F 65.2 °F 30.06 in Calm     95% 0.00 in SCT
07:10 66.7 °F 65.2 °F 30.05 in Calm     95% 0.00 in SCT
07:20 66.7 °F 65.2 °F 30.06 in Calm     95% 0.00 in SCT
07:30 66.7 °F 65.2 °F 30.07 in Calm     95% 0.00 in SCT
07:40 66.7 °F 65.2 °F 30.05 in Calm     95% 0.00 in SCT
07:50 67.9 °F 65.8 °F 30.05 in Calm     93% 0.00 in SCT
08:00 68.5 °F 66.7 °F 30.05 in Calm     94% 0.00 in SCT
08:10 68.9 °F 66.8 °F 30.05 in Calm   1.0 mph 93% 0.00 in SCT
08:20 69.6 °F 67.5 °F 30.06 in NNW 1.0 mph 1.0 mph 93% 0.00 in SCT
08:30 70.6 °F 68.5 °F 30.06 in Calm   1.0 mph 93% 0.00 in SCT
08:40 71.1 °F 68.3 °F 30.07 in Calm     91% 0.00 in SCT
08:50 71.6 °F 68.5 °F 30.07 in Calm   1.0 mph 90% 0.00 in SCT
09:00 72.3 °F 68.9 °F 30.07 in Calm   1.0 mph 89% 0.00 in SCT
09:10 72.8 °F 68.7 °F 30.07 in Calm   2.0 mph 87% 0.00 in SCT
09:20 72.9 °F 68.5 °F 30.07 in Calm   2.0 mph 86% 0.00 in SCT
09:30 73.2 °F 68.4 °F 30.07 in Calm   1.0 mph 85% 0.00 in SCT
09:40 73.2 °F 68.1 °F 30.06 in Calm   2.0 mph 84% 0.00 in SCT
09:50 73.9 °F 68.8 °F 30.06 in Calm   2.0 mph 84% 0.00 in SCT
10:00 74.3 °F 68.8 °F 30.06 in Calm   1.0 mph 83% 0.00 in SCT
10:10 74.6 °F 68.7 °F 30.06 in Calm   1.0 mph 82% 0.00 in SCT
10:20 75.0 °F 68.4 °F 30.06 in Calm   2.0 mph 80% 0.00 in SCT
10:30 75.3 °F 68.7 °F 30.06 in Calm   1.0 mph 80% 0.00 in SCT
10:40 76.1 °F 68.7 °F 30.06 in Calm   1.0 mph 78% 0.00 in SCT
10:50 76.2 °F 69.2 °F 30.06 in Calm   2.0 mph 79% 0.00 in SCT
11:00 76.5 °F 68.7 °F 30.05 in Calm   2.0 mph 77% 0.00 in SCT
11:10 76.7 °F 68.6 °F 30.06 in Calm   2.0 mph 76% 0.00 in SCT
11:20 76.9 °F 69.1 °F 30.05 in Calm   2.0 mph 77% 0.00 in SCT
11:30 76.8 °F 68.3 °F 30.04 in Calm   1.0 mph 75% 0.00 in SCT
11:40 76.9 °F 69.1 °F 30.04 in Calm   1.0 mph 77% 0.00 in SCT
11:50 77.4 °F 69.2 °F 30.05 in Calm   1.0 mph 76% 0.00 in SCT
12:00 77.7 °F 68.8 °F 30.04 in Calm   1.0 mph 74% 0.00 in SCT
12:10 77.8 °F 68.4 °F 30.04 in Calm   2.0 mph 73% 0.00 in SCT
12:20 78.2 °F 69.2 °F 30.03 in Calm   2.0 mph 74% 0.00 in SCT
12:30 78.1 °F 68.7 °F 30.02 in Calm   3.0 mph 73% 0.00 in SCT
13:00 76.1 °F 68.3 °F 30.01 in Calm   2.0 mph 77% 0.00 in SCT
13:10 77.0 °F 68.9 °F 30.01 in Calm   2.0 mph 76% 0.00 in SCT
13:20 78.2 °F 68.4 °F 30.00 in Calm   3.0 mph 72% 0.00 in SCT
13:30 78.8 °F 68.6 °F 30.00 in Calm   1.0 mph 71% 0.00 in SCT
13:40 78.1 °F 67.5 °F 30.01 in Calm   2.0 mph 70% 0.00 in SCT
13:50 78.1 °F 68.3 °F 30.00 in NW 1.0 mph 2.0 mph 72% 0.00 in SCT
14:00 77.6 °F 68.3 °F 30.00 in Calm   1.0 mph 73% 0.00 in SCT
14:10 75.6 °F 63.8 °F 30.01 in Calm   3.0 mph 67% 0.00 in SCT
14:20 73.9 °F 64.3 °F 30.00 in Calm   1.0 mph 72% 0.00 in SCT
14:30 73.3 °F 64.1 °F 30.01 in Calm   1.0 mph 73% 0.00 in SCT
14:40 72.9 °F 63.7 °F 30.01 in Calm     73% 0.00 in SCT
14:50 73.1 °F 63.1 °F 30.01 in Calm   1.0 mph 71% 0.00 in SCT
15:00 73.2 °F 62.9 °F 30.01 in Calm   1.0 mph 70% 0.00 in SCT
15:10 73.9 °F 63.5 °F 30.00 in Calm   1.0 mph 70% 0.00 in SCT
15:20 74.4 °F 63.6 °F 30.00 in Calm     69% 0.00 in SCT
15:30 74.5 °F 64.5 °F 29.99 in Calm     71% 0.00 in SCT
15:40 74.4 °F 65.6 °F 30.00 in Calm     74% 0.00 in SCT
15:50 74.1 °F 65.3 °F 29.99 in Calm     74% 0.00 in SCT
16:00 74.0 °F 65.2 °F 29.99 in Calm     74% 0.00 in SCT
16:10 73.8 °F 66.2 °F 29.99 in Calm     77% 0.00 in SCT
16:20 73.3 °F 66.0 °F 29.98 in Calm     78% 0.00 in SCT
16:30 73.0 °F 66.5 °F 29.98 in Calm   1.0 mph 80% 0.00 in SCT
16:40 72.7 °F 66.5 °F 29.98 in Calm   2.0 mph 81% 0.00 in SCT
16:50 72.3 °F 66.9 °F 29.97 in Calm     83% 0.00 in SCT
17:00 71.8 °F 66.7 °F 29.97 in Calm     84% 0.00 in SCT
17:10 70.9 °F 66.2 °F 29.96 in Calm     85% 0.00 in SCT
17:20 70.3 °F 65.9 °F 29.96 in Calm     86% 0.00 in SCT
17:30 69.9 °F 66.2 °F 29.97 in Calm     88% 0.00 in SCT
17:40 69.6 °F 66.2 °F 29.97 in Calm   1.0 mph 89% 0.00 in SCT
17:50 69.2 °F 66.1 °F 29.97 in Calm   1.0 mph 90% 0.01 in SCT
18:00 69.1 °F 66.0 °F 29.98 in Calm     90% 0.00 in SCT
18:10 69.1 °F 66.4 °F 29.98 in Calm   1.0 mph 91% 0.01 in SCT
18:20 68.9 °F 65.8 °F 29.97 in Calm   2.0 mph 90% 0.00 in SCT
18:30 68.9 °F 66.2 °F 29.96 in Calm   1.0 mph 91% 0.00 in SCT
18:40 68.9 °F 66.1 °F 29.96 in Calm   1.0 mph 91% 0.00 in SCT
18:50 68.9 °F 66.2 °F 29.96 in Calm     91% 0.00 in SCT
19:00 68.7 °F 66.0 °F 29.96 in Calm     91% 0.00 in SCT
19:10 68.6 °F 65.9 °F 29.95 in Calm     91% 0.00 in SCT
19:30 68.7 °F 65.9 °F 29.95 in Calm     91% 0.00 in SCT
19:40 68.6 °F 65.9 °F 29.95 in Calm     91% 0.00 in SCT
19:50 68.4 °F 65.7 °F 29.94 in Calm     91% 0.00 in SCT
20:00 68.3 °F 65.6 °F 29.94 in Calm     91% 0.00 in SCT
20:10 68.1 °F 65.4 °F 29.94 in Calm     91% 0.00 in SCT
20:20 68.1 °F 65.4 °F 29.94 in Calm     91% 0.00 in SCT
20:30 68.0 °F 65.3 °F 29.94 in Calm     91% 0.00 in SCT
20:40 67.9 °F 65.2 °F 29.94 in Calm     91% 0.00 in SCT
20:50 67.7 °F 65.0 °F 29.94 in Calm     91% 0.00 in SCT
21:00 67.6 °F 65.2 °F 29.95 in Calm     92% 0.00 in SCT
21:10 67.7 °F 65.3 °F 29.95 in Calm     92% 0.00 in SCT
21:20 67.7 °F 65.3 °F 29.95 in Calm     92% 0.00 in SCT
21:40 67.5 °F 65.1 °F 29.95 in Calm     92% 0.00 in SCT
21:50 67.4 °F 65.0 °F 29.95 in Calm     92% 0.00 in SCT
22:00 67.5 °F 65.1 °F 29.94 in Calm     92% 0.00 in SCT
22:10 67.5 °F 65.1 °F 29.95 in Calm     92% 0.00 in SCT
22:20 67.5 °F 65.1 °F 29.95 in Calm     92% 0.00 in SCT
22:30 67.5 °F 65.1 °F 29.96 in Calm     92% 0.00 in SCT
22:40 67.6 °F 65.2 °F 29.96 in Calm     92% 0.00 in SCT
22:50 67.6 °F 65.5 °F 29.96 in Calm     93% 0.00 in SCT
23:00 67.7 °F 65.6 °F 29.96 in Calm     93% 0.01 in SCT
23:10 67.8 °F 65.7 °F 29.96 in Calm     93% 0.00 in SCT
23:20 67.9 °F 65.8 °F 29.95 in Calm     93% 0.01 in SCT
23:30 67.9 °F 65.8 °F 29.95 in Calm     93% 0.01 in RA
23:40 67.9 °F 65.8 °F 29.94 in Calm     93% 0.00 in SCT
23:50 67.9 °F 65.8 °F 29.94 in Calm     93% 0.00 in SCT
Piedmont Bend
Compliments of Weather Underground - 4 mb